Time;durP1;ratioP1;P1;durP2;ratioP2;P2;SDS_P1;SDS_P2;PMS_P1;PMS_P2;Temp;Humidity;BMP_temperature;BMP_pressure;BME280_temperature;BME280_humidity;BME280_pressure;Samples;Min_cycle;Max_cycle;Signal;HPM_P1;HPM_P2
2022/03/08 00:01:41;;;;;;;2.05;1.98;;;21.00;31.70;;;;;;5048118;28;20669;-54
2022/03/08 00:04:08;;;;;;;1.10;0.93;;;21.00;31.80;;;;;;5046335;28;20037;-54
2022/03/08 00:06:37;;;;;;;0.85;0.85;;;21.00;31.80;;;;;;5047338;28;20040;-52
2022/03/08 00:09:04;;;;;;;1.60;1.50;;;21.00;31.80;;;;;;5049740;28;20098;-49
2022/03/08 00:11:31;;;;;;;2.25;0.90;;;21.10;31.70;;;;;;5049096;28;20040;-51
2022/03/08 00:13:59;;;;;;;1.80;1.70;;;21.10;31.70;;;;;;5049218;28;20045;-50
2022/03/08 00:16:26;;;;;;;1.13;0.80;;;21.10;31.60;;;;;;5046195;28;20085;-54
2022/03/08 00:18:53;;;;;;;2.05;1.95;;;21.10;31.60;;;;;;5045697;28;20127;-52
2022/03/08 00:21:20;;;;;;;1.15;1.05;;;21.10;31.60;;;;;;5047465;28;20067;-49
2022/03/08 00:23:49;;;;;;;1.42;1.33;;;21.10;31.50;;;;;;5066946;28;20136;-49
2022/03/08 00:26:16;;;;;;;2.28;0.93;;;21.10;31.50;;;;;;5042929;28;20051;-62
2022/03/08 00:28:43;;;;;;;1.30;0.98;;;21.10;31.50;;;;;;5064153;28;20033;-50
2022/03/08 00:31:11;;;;;;;1.45;1.35;;;21.10;31.50;;;;;;5049755;28;20047;-48
2022/03/08 00:33:38;;;;;;;0.88;0.88;;;21.10;31.50;;;;;;5046057;28;20128;-47
2022/03/08 00:36:05;;;;;;;1.48;1.10;;;21.10;31.60;;;;;;5050913;28;20151;-50
2022/03/08 00:38:33;;;;;;;1.17;1.13;;;21.10;31.50;;;;;;5047245;28;20048;-49
2022/03/08 00:41:02;;;;;;;1.35;1.25;;;21.10;31.50;;;;;;5052479;28;20107;-46
2022/03/08 00:43:29;;;;;;;1.10;0.95;;;21.10;31.50;;;;;;5049262;28;20067;-58
2022/03/08 00:45:56;;;;;;;1.10;1.02;;;21.10;31.50;;;;;;5047859;28;20049;-54
2022/03/08 00:48:23;;;;;;;1.17;1.10;;;21.10;31.50;;;;;;5060347;28;20135;-56
2022/03/08 00:50:50;;;;;;;0.88;0.88;;;21.10;31.60;;;;;;5045158;28;20119;-61
2022/03/08 00:53:18;;;;;;;1.33;1.13;;;21.10;31.60;;;;;;5047482;28;20053;-61
2022/03/08 00:55:46;;;;;;;1.58;1.55;;;21.10;31.60;;;;;;5049320;28;20041;-47
2022/03/08 00:58:14;;;;;;;1.83;1.17;;;21.10;31.60;;;;;;5043446;28;20040;-52
2022/03/08 01:00:42;;;;;;;1.77;1.55;;;21.10;31.50;;;;;;5046852;28;20044;-52
2022/03/08 01:03:09;;;;;;;1.00;1.00;;;21.10;31.50;;;;;;5046867;28;20103;-51
2022/03/08 01:05:36;;;;;;;1.50;1.23;;;21.10;31.50;;;;;;5047535;28;20036;-48
2022/03/08 01:08:05;;;;;;;1.55;1.35;;;21.10;31.40;;;;;;5047425;28;20041;-48
2022/03/08 01:10:33;;;;;;;1.00;1.00;;;21.10;31.40;;;;;;5048126;28;20045;-47
2022/03/08 01:13:00;;;;;;;2.45;1.80;;;21.10;31.40;;;;;;5047310;28;20144;-54
2022/03/08 01:15:29;;;;;;;6.88;0.95;;;21.10;31.40;;;;;;5045362;28;20040;-53
2022/03/08 01:17:57;;;;;;;1.30;1.20;;;21.10;31.50;;;;;;5047526;28;20102;-55
2022/03/08 01:20:25;;;;;;;1.33;1.33;;;21.20;31.50;;;;;;5045646;28;20048;-54
2022/03/08 01:22:54;;;;;;;1.40;1.30;;;21.20;31.50;;;;;;5048778;28;20069;-56
2022/03/08 01:25:23;;;;;;;1.38;1.38;;;21.30;31.50;;;;;;5041544;28;20509;-57
2022/03/08 01:27:51;;;;;;;1.55;0.93;;;21.30;31.30;;;;;;5047063;28;20041;-57
2022/03/08 01:30:21;;;;;;;1.65;1.20;;;21.40;31.20;;;;;;5044413;28;20888;-57
2022/03/08 01:32:49;;;;;;;1.38;1.33;;;21.40;31.60;;;;;;5046483;28;20099;-55
2022/03/08 01:35:18;;;;;;;4.05;1.83;;;21.50;30.90;;;;;;5043517;28;20061;-56
2022/03/08 01:37:45;;;;;;;0.80;0.80;;;21.50;30.90;;;;;;5046248;28;20068;-53
2022/03/08 01:40:15;;;;;;;1.90;1.50;;;21.50;30.90;;;;;;5044117;28;20037;-53
2022/03/08 01:42:45;;;;;;;1.00;1.00;;;21.50;30.80;;;;;;5045152;28;20372;-56
2022/03/08 02:09:01;;;;;;;0.60;0.60;;;21.20;31.20;;;;;;4924849;29;20051;-52
2022/03/08 02:11:28;;;;;;;1.33;0.63;;;21.20;31.50;;;;;;4938901;28;20075;-48
2022/03/08 02:13:55;;;;;;;1.40;1.30;;;21.20;31.60;;;;;;4929720;29;20036;-49
2022/03/08 02:16:22;;;;;;;6.70;0.55;;;21.20;31.50;;;;;;4924391;29;20472;-49
2022/03/08 02:18:50;;;;;;;3.15;0.98;;;21.20;31.60;;;;;;4927602;29;20043;-47
2022/03/08 02:21:18;;;;;;;3.67;0.82;;;21.10;31.60;;;;;;4921368;29;20073;-51
2022/03/08 02:23:45;;;;;;;3.40;0.90;;;21.10;31.70;;;;;;4927702;29;20546;-48
2022/03/08 02:26:12;;;;;;;1.15;1.00;;;21.00;31.60;;;;;;4925962;29;20498;-53
2022/03/08 02:28:40;;;;;;;1.13;1.02;;;21.00;31.70;;;;;;4927437;29;20039;-50
2022/03/08 02:31:07;;;;;;;3.88;2.08;;;20.90;31.80;;;;;;4928179;29;20106;-52
2022/03/08 02:33:34;;;;;;;2.58;0.80;;;20.90;31.90;;;;;;4924781;29;20471;-48
2022/03/08 02:36:02;;;;;;;0.98;0.68;;;20.80;31.90;;;;;;4915989;28;20047;-50
2022/03/08 02:38:30;;;;;;;0.90;0.90;;;20.80;32.00;;;;;;4919218;29;20048;-52
2022/03/08 02:40:57;;;;;;;1.25;0.50;;;20.70;32.00;;;;;;4956737;28;20100;-48
2022/03/08 02:43:24;;;;;;;1.10;0.98;;;20.70;32.00;;;;;;4920682;29;20381;-48
2022/03/08 02:45:51;;;;;;;2.72;1.05;;;20.60;32.10;;;;;;4924838;29;20054;-47
2022/03/08 02:48:18;;;;;;;5.95;0.85;;;20.60;32.10;;;;;;4917964;28;20047;-48
2022/03/08 02:50:45;;;;;;;0.70;0.52;;;20.50;32.10;;;;;;4922282;29;20126;-49
2022/03/08 02:53:12;;;;;;;5.07;0.65;;;20.40;32.20;;;;;;4912681;29;20122;-51
2022/03/08 02:55:41;;;;;;;2.30;0.90;;;20.40;32.20;;;;;;4923723;29;20123;-49
2022/03/08 02:58:08;;;;;;;2.53;0.77;;;20.30;32.20;;;;;;4923946;29;20381;-50
2022/03/08 03:00:36;;;;;;;0.98;0.68;;;20.30;32.30;;;;;;4923840;29;20119;-49
2022/03/08 03:03:05;;;;;;;1.80;1.20;;;20.20;32.30;;;;;;4924422;29;20867;-51
2022/03/08 03:05:33;;;;;;;0.80;0.80;;;20.20;32.50;;;;;;4919057;28;20496;-51
2022/03/08 03:08:00;;;;;;;1.30;0.50;;;20.10;32.40;;;;;;4915359;29;20173;-49
2022/03/08 03:10:28;;;;;;;2.63;1.17;;;20.10;32.50;;;;;;4920861;29;20063;-51
2022/03/08 03:12:58;;;;;;;2.30;0.73;;;20.10;32.60;;;;;;4926623;29;20043;-51
2022/03/08 03:15:27;;;;;;;0.82;0.82;;;20.00;32.70;;;;;;4919020;29;20393;-49
2022/03/08 03:17:55;;;;;;;0.50;0.40;;;20.00;32.80;;;;;;4914365;29;20035;-48
2022/03/08 03:20:26;;;;;;;1.25;0.63;;;19.90;32.80;;;;;;4916092;28;20201;-50
2022/03/08 03:22:53;;;;;;;1.05;0.90;;;19.90;32.90;;;;;;4921665;29;20885;-50
2022/03/08 03:25:21;;;;;;;1.13;0.60;;;19.80;33.00;;;;;;4919697;29;20046;-50
2022/03/08 03:27:48;;;;;;;1.20;0.60;;;19.80;33.10;;;;;;4919402;29;20047;-52
2022/03/08 03:30:19;;;;;;;0.90;0.70;;;19.80;33.20;;;;;;4911550;29;20496;-48
2022/03/08 03:32:46;;;;;;;1.00;0.95;;;19.70;33.20;;;;;;4923744;29;20060;-49
2022/03/08 03:35:13;;;;;;;0.60;0.60;;;19.70;33.20;;;;;;4926132;29;20085;-49
2022/03/08 03:37:41;;;;;;;0.88;0.85;;;19.60;33.30;;;;;;4922751;29;20653;-48
2022/03/08 03:40:10;;;;;;;6.57;0.65;;;19.60;33.50;;;;;;4923718;29;20075;-51
2022/03/08 03:42:37;;;;;;;1.95;0.90;;;19.60;33.60;;;;;;4952094;28;20072;-52
2022/03/08 03:45:05;;;;;;;0.55;0.30;;;19.60;33.70;;;;;;4915061;29;20444;-49
2022/03/08 03:47:34;;;;;;;0.95;0.47;;;19.50;33.80;;;;;;4920789;29;20118;-49
2022/03/08 03:50:01;;;;;;;1.08;0.70;;;19.50;33.90;;;;;;4916303;29;20044;-51
2022/03/08 03:52:28;;;;;;;1.45;0.73;;;19.40;34.00;;;;;;4929555;29;20086;-49
2022/03/08 03:54:55;;;;;;;0.70;0.60;;;19.40;34.10;;;;;;4928052;29;20794;-48
2022/03/08 03:57:22;;;;;;;3.40;1.42;;;19.40;34.20;;;;;;4922732;29;20048;-51
2022/03/08 03:59:49;;;;;;;0.73;0.73;;;19.30;34.10;;;;;;4913256;29;20036;-53
2022/03/08 04:02:16;;;;;;;2.45;1.63;;;19.30;34.10;;;;;;4925935;29;20091;-52
2022/03/08 04:04:45;;;;;;;1.75;0.95;;;19.30;34.10;;;;;;4928075;29;20048;-51
2022/03/08 04:07:12;;;;;;;1.30;1.20;;;19.30;34.20;;;;;;4918219;29;20058;-49
2022/03/08 04:09:39;;;;;;;1.75;0.50;;;19.30;34.30;;;;;;4919685;29;20057;-52
2022/03/08 04:12:07;;;;;;;0.70;0.70;;;19.30;34.40;;;;;;4916460;29;20515;-53
2022/03/08 04:14:34;;;;;;;0.85;0.65;;;19.30;34.50;;;;;;4920914;29;20843;-50
2022/03/08 04:17:02;;;;;;;0.77;0.77;;;19.30;34.60;;;;;;4915276;29;20052;-50
2022/03/08 04:19:29;;;;;;;1.00;0.93;;;19.20;34.60;;;;;;4920231;28;20047;-49
2022/03/08 04:21:57;;;;;;;0.95;0.60;;;19.20;34.70;;;;;;4927076;29;20099;-53
2022/03/08 04:24:25;;;;;;;1.95;0.57;;;19.20;35.40;;;;;;4922287;29;20051;-52
2022/03/08 04:26:52;;;;;;;9.85;0.77;;;19.10;34.90;;;;;;4915393;29;20040;-51
2022/03/08 04:29:19;;;;;;;1.13;0.88;;;19.10;35.10;;;;;;4922836;28;20468;-48
2022/03/08 04:31:47;;;;;;;1.13;0.70;;;19.10;35.20;;;;;;4937055;29;20463;-49
2022/03/08 04:34:14;;;;;;;1.85;0.80;;;19.10;35.30;;;;;;4917046;29;20425;-47
2022/03/08 04:36:41;;;;;;;1.85;1.05;;;19.00;35.20;;;;;;4925054;29;20044;-50
2022/03/08 04:39:09;;;;;;;0.77;0.70;;;19.10;35.30;;;;;;4924263;29;20492;-50
2022/03/08 04:41:36;;;;;;;0.50;0.45;;;19.00;35.10;;;;;;4914413;29;20119;-48
2022/03/08 04:44:04;;;;;;;0.95;0.70;;;19.00;35.10;;;;;;4921549;29;20058;-50
2022/03/08 04:46:31;;;;;;;1.63;0.75;;;19.00;35.20;;;;;;4931126;28;20537;-48
2022/03/08 04:48:58;;;;;;;1.70;0.57;;;19.00;35.20;;;;;;4921537;29;20090;-46
2022/03/08 04:51:25;;;;;;;1.17;1.10;;;19.00;35.40;;;;;;4923161;29;20038;-48
2022/03/08 04:53:52;;;;;;;0.73;0.73;;;19.00;35.60;;;;;;4919385;29;20054;-52
2022/03/08 04:56:20;;;;;;;0.75;0.75;;;19.00;35.60;;;;;;4925382;29;20046;-49
2022/03/08 04:58:47;;;;;;;1.50;0.75;;;19.00;35.60;;;;;;4922902;28;20047;-48
2022/03/08 05:01:15;;;;;;;4.32;0.70;;;18.90;35.60;;;;;;4925819;29;20399;-48
2022/03/08 05:03:42;;;;;;;1.27;0.65;;;18.90;35.60;;;;;;4929468;29;20061;-49
2022/03/08 05:06:09;;;;;;;0.60;0.60;;;18.90;35.70;;;;;;4920073;29;20035;-48
2022/03/08 05:08:37;;;;;;;6.68;0.90;;;18.80;35.70;;;;;;4913765;29;20048;-48
2022/03/08 05:11:04;;;;;;;5.70;0.65;;;18.90;35.90;;;;;;4921612;29;20052;-48
2022/03/08 05:13:32;;;;;;;0.95;0.95;;;18.80;35.90;;;;;;4926381;29;20118;-46
2022/03/08 05:16:00;;;;;;;1.25;1.15;;;18.90;35.90;;;;;;4927971;29;20512;-48
2022/03/08 05:18:27;;;;;;;0.85;0.80;;;18.90;35.90;;;;;;4926408;29;20087;-50
2022/03/08 05:20:54;;;;;;;1.58;0.75;;;18.80;35.70;;;;;;4919526;29;20075;-48
2022/03/08 05:23:21;;;;;;;0.70;0.70;;;18.80;35.70;;;;;;4919332;29;20452;-48
2022/03/08 05:25:48;;;;;;;2.08;0.93;;;18.90;35.70;;;;;;4933608;29;20052;-47
2022/03/08 05:28:16;;;;;;;5.20;1.25;;;18.80;35.70;;;;;;4924880;29;20083;-48
2022/03/08 05:30:45;;;;;;;0.50;0.50;;;18.80;35.80;;;;;;4925962;29;20031;-48
2022/03/08 05:33:12;;;;;;;2.25;1.40;;;18.80;35.90;;;;;;4917557;29;20063;-47
2022/03/08 05:35:39;;;;;;;4.15;0.50;;;18.80;35.90;;;;;;4914213;29;20056;-48
2022/03/08 05:38:06;;;;;;;1.15;0.75;;;18.80;35.90;;;;;;4916273;29;20040;-47
2022/03/08 05:40:35;;;;;;;0.95;0.43;;;18.80;36.00;;;;;;4922958;29;20127;-47
2022/03/08 05:43:02;;;;;;;0.75;0.75;;;18.70;35.90;;;;;;4922413;29;20059;-44
2022/03/08 05:45:30;;;;;;;1.77;0.85;;;18.70;36.00;;;;;;4921404;29;20500;-48
2022/03/08 05:47:58;;;;;;;1.40;0.57;;;18.70;36.00;;;;;;4922544;29;20122;-51
2022/03/08 05:50:26;;;;;;;1.55;1.13;;;18.70;36.10;;;;;;4912741;29;20384;-47
2022/03/08 05:52:53;;;;;;;2.00;0.90;;;18.70;36.10;;;;;;4922735;29;20040;-52
2022/03/08 05:55:20;;;;;;;0.50;0.50;;;18.70;36.10;;;;;;4922515;29;20508;-49
2022/03/08 05:57:47;;;;;;;1.17;1.15;;;18.70;36.10;;;;;;4922176;29;20040;-49
2022/03/08 06:00:15;;;;;;;0.90;0.63;;;18.70;36.10;;;;;;4916135;29;20048;-52
2022/03/08 06:02:42;;;;;;;1.38;0.60;;;18.70;36.00;;;;;;4918330;29;20040;-50
2022/03/08 06:05:11;;;;;;;3.08;0.80;;;18.70;36.00;;;;;;4915314;28;20056;-52
2022/03/08 06:07:39;;;;;;;1.63;0.70;;;18.70;36.10;;;;;;4920728;29;20051;-50
2022/03/08 06:10:08;;;;;;;1.30;0.65;;;18.70;36.20;;;;;;4927612;29;20079;-47
2022/03/08 06:12:35;;;;;;;0.60;0.60;;;18.70;36.30;;;;;;4920418;29;20132;-48
2022/03/08 06:15:03;;;;;;;1.02;0.93;;;18.70;36.40;;;;;;4916497;29;20102;-49
2022/03/08 06:17:30;;;;;;;3.22;0.95;;;18.60;36.40;;;;;;4915262;29;20485;-47
2022/03/08 06:19:57;;;;;;;4.45;0.80;;;18.60;36.50;;;;;;4923700;28;20135;-48
2022/03/08 06:22:26;;;;;;;0.98;0.52;;;18.60;36.50;;;;;;4921095;29;20044;-50
2022/03/08 06:24:54;;;;;;;1.00;0.60;;;18.60;36.60;;;;;;4921611;29;20066;-48
2022/03/08 06:27:21;;;;;;;1.48;0.73;;;18.60;36.60;;;;;;4918206;29;20043;-48
2022/03/08 06:29:51;;;;;;;1.48;0.50;;;18.60;36.70;;;;;;4922751;29;20043;-48
2022/03/08 06:32:18;;;;;;;0.70;0.60;;;18.60;36.70;;;;;;4925603;29;20790;-49
2022/03/08 06:34:46;;;;;;;1.55;0.55;;;18.60;36.80;;;;;;4922985;29;20512;-47
2022/03/08 06:37:13;;;;;;;0.82;0.80;;;18.60;36.80;;;;;;4921876;29;20149;-49
2022/03/08 06:39:42;;;;;;;1.75;0.65;;;18.60;36.90;;;;;;4919704;29;20047;-47
2022/03/08 06:42:09;;;;;;;4.50;0.77;;;18.60;37.30;;;;;;4919805;28;20135;-48
2022/03/08 06:44:39;;;;;;;12.10;0.82;;;18.60;36.90;;;;;;4921038;29;20039;-50
2022/03/08 06:47:06;;;;;;;1.17;0.88;;;18.60;37.30;;;;;;4914734;29;20044;-51
2022/03/08 06:49:34;;;;;;;0.73;0.65;;;18.60;37.50;;;;;;4935937;28;20421;-52
2022/03/08 06:52:01;;;;;;;0.68;0.40;;;18.60;37.50;;;;;;4926963;29;20056;-48
2022/03/08 06:54:28;;;;;;;1.13;0.57;;;18.60;37.60;;;;;;4920063;29;20131;-52
2022/03/08 06:56:57;;;;;;;1.30;1.00;;;18.60;37.70;;;;;;4935551;28;20419;-51
2022/03/08 06:59:26;;;;;;;3.15;1.10;;;18.60;37.90;;;;;;4916574;29;20519;-49
2022/03/08 07:01:53;;;;;;;0.75;0.70;;;18.60;37.90;;;;;;4919715;29;20044;-56
2022/03/08 07:04:20;;;;;;;1.02;0.98;;;18.60;37.90;;;;;;4913420;29;20044;-54
2022/03/08 07:06:47;;;;;;;1.38;1.08;;;18.60;38.00;;;;;;4917286;29;20056;-51
2022/03/08 07:09:15;;;;;;;1.85;0.80;;;18.60;38.00;;;;;;4910212;29;20055;-48
2022/03/08 07:11:42;;;;;;;2.05;0.85;;;18.60;38.10;;;;;;4911802;29;20473;-51
2022/03/08 07:14:15;;;;;;;0.80;0.80;;;18.60;38.10;;;;;;4914357;29;20054;-52
2022/03/08 07:16:42;;;;;;;4.82;0.95;;;18.60;38.20;;;;;;4928721;29;20508;-52
2022/03/08 07:19:11;;;;;;;3.40;1.35;;;18.60;38.10;;;;;;4928951;29;20050;-50
2022/03/08 07:21:39;;;;;;;2.97;1.13;;;18.60;38.10;;;;;;4956489;28;20523;-50
2022/03/08 07:24:07;;;;;;;1.45;0.98;;;18.60;38.10;;;;;;4920979;29;20126;-47
2022/03/08 07:26:34;;;;;;;2.13;1.38;;;18.60;38.00;;;;;;4930701;29;20139;-52
2022/03/08 07:29:01;;;;;;;3.88;0.98;;;18.70;38.20;;;;;;4923880;29;20056;-53
2022/03/08 07:31:31;;;;;;;2.10;1.20;;;18.70;38.20;;;;;;4933622;29;20050;-47
2022/03/08 07:33:59;;;;;;;0.77;0.77;;;18.70;38.20;;;;;;4931989;28;20051;-50
2022/03/08 07:36:27;;;;;;;1.10;1.02;;;18.60;38.10;;;;;;4925133;28;20046;-49
2022/03/08 07:38:54;;;;;;;4.25;0.88;;;18.70;38.20;;;;;;4918014;29;20040;-49
2022/03/08 07:41:22;;;;;;;2.28;1.13;;;18.70;38.60;;;;;;4924925;29;20461;-51
2022/03/08 07:43:49;;;;;;;6.47;2.15;;;18.70;38.60;;;;;;4938417;29;20111;-52
2022/03/08 07:46:16;;;;;;;3.42;1.40;;;18.70;38.60;;;;;;4927391;29;20933;-47
2022/03/08 07:48:45;;;;;;;5.05;1.30;;;18.70;38.60;;;;;;4930757;29;20047;-53
2022/03/08 07:51:12;;;;;;;6.78;1.92;;;18.80;38.70;;;;;;4933237;28;20046;-52
2022/03/08 07:53:40;;;;;;;2.17;1.10;;;18.70;38.60;;;;;;4932509;29;20593;-51
2022/03/08 07:56:07;;;;;;;3.95;1.58;;;18.70;38.60;;;;;;4935715;29;20056;-50
2022/03/08 07:58:37;;;;;;;2.55;1.33;;;18.80;38.60;;;;;;4939539;29;20922;-51
2022/03/08 08:01:05;;;;;;;1.35;1.08;;;18.80;38.50;;;;;;4936175;29;20054;-48
2022/03/08 08:03:32;;;;;;;5.53;1.08;;;18.80;38.50;;;;;;4927135;29;20052;-48
2022/03/08 08:06:02;;;;;;;5.78;1.27;;;18.80;38.50;;;;;;4917656;29;20126;-50
2022/03/08 08:08:31;;;;;;;12.50;1.67;;;18.80;38.60;;;;;;4916609;29;20082;-54
2022/03/08 08:10:59;;;;;;;8.32;1.50;;;18.80;38.60;;;;;;4928043;29;20055;-59
2022/03/08 08:13:27;;;;;;;4.47;1.80;;;18.90;38.80;;;;;;4921757;29;20059;-59
2022/03/08 08:15:54;;;;;;;7.45;1.73;;;18.90;38.80;;;;;;4935553;29;20036;-54
2022/03/08 08:18:21;;;;;;;5.35;1.33;;;18.90;38.70;;;;;;4921320;29;20044;-55
2022/03/08 08:20:48;;;;;;;7.90;2.00;;;18.90;38.90;;;;;;4916282;29;20150;-56
2022/03/08 08:23:17;;;;;;;14.95;2.30;;;18.90;38.70;;;;;;4920132;29;20050;-55
2022/03/08 08:25:46;;;;;;;9.80;1.40;;;18.90;38.60;;;;;;4939545;29;20576;-56
2022/03/08 08:28:13;;;;;;;4.28;2.17;;;18.90;38.50;;;;;;4922603;29;20067;-55
2022/03/08 08:30:40;;;;;;;3.45;1.30;;;18.90;38.40;;;;;;4923665;29;20043;-56
2022/03/08 08:33:07;;;;;;;18.73;1.92;;;18.90;38.30;;;;;;4931691;28;20050;-56
2022/03/08 08:35:35;;;;;;;5.50;1.20;;;18.90;38.20;;;;;;4923310;29;20197;-55
2022/03/08 08:38:02;;;;;;;8.18;1.63;;;18.90;38.10;;;;;;4920119;29;20078;-56
2022/03/08 08:40:31;;;;;;;4.38;1.25;;;18.90;38.00;;;;;;4924334;29;20048;-55
2022/03/08 08:42:58;;;;;;;12.18;1.77;;;18.90;37.90;;;;;;4925330;28;20055;-55
2022/03/08 08:45:26;;;;;;;2.85;1.77;;;18.90;37.80;;;;;;4921566;29;20040;-53
2022/03/08 08:47:53;;;;;;;2.35;1.73;;;18.90;37.70;;;;;;4915633;29;20048;-56
2022/03/08 08:50:20;;;;;;;2.60;1.45;;;19.00;37.70;;;;;;4920787;29;20055;-55
2022/03/08 08:52:48;;;;;;;3.10;1.52;;;19.00;37.60;;;;;;4926810;29;20144;-54
2022/03/08 08:55:15;;;;;;;4.43;1.67;;;19.00;37.60;;;;;;4921175;29;20123;-57
2022/03/08 08:57:43;;;;;;;3.47;1.30;;;19.00;37.50;;;;;;4939470;28;20496;-57
2022/03/08 09:00:13;;;;;;;3.85;1.98;;;19.00;37.40;;;;;;4924203;29;20048;-56
2022/03/08 09:02:43;;;;;;;8.40;2.22;;;19.00;37.30;;;;;;4927818;29;20127;-56
2022/03/08 09:05:11;;;;;;;2.33;1.50;;;19.00;37.20;;;;;;4919271;29;20096;-55
2022/03/08 09:07:38;;;;;;;6.63;1.88;;;19.00;37.20;;;;;;4936516;29;20055;-56
2022/03/08 09:10:07;;;;;;;1.52;1.40;;;19.00;37.10;;;;;;4924505;29;20441;-55
2022/03/08 09:12:36;;;;;;;3.58;2.15;;;19.00;37.00;;;;;;4952331;28;20047;-56
2022/03/08 09:15:05;;;;;;;3.47;1.90;;;19.00;37.00;;;;;;4921342;29;20047;-56
2022/03/08 09:17:32;;;;;;;4.57;2.97;;;19.00;36.90;;;;;;4922761;28;20429;-52
2022/03/08 09:19:59;;;;;;;5.03;1.35;;;19.00;36.80;;;;;;4918573;29;20047;-57
2022/03/08 09:22:27;;;;;;;3.60;2.38;;;19.00;36.70;;;;;;4923687;29;20044;-55
2022/03/08 09:24:54;;;;;;;2.67;1.55;;;19.10;36.70;;;;;;4935661;28;20043;-54
2022/03/08 09:27:21;;;;;;;1.77;1.52;;;19.10;36.60;;;;;;4928899;29;20123;-54
2022/03/08 09:29:48;;;;;;;2.65;2.45;;;19.10;36.50;;;;;;4916124;29;20043;-56
2022/03/08 09:32:17;;;;;;;4.07;1.95;;;19.10;36.40;;;;;;4930766;29;20441;-57
2022/03/08 09:34:45;;;;;;;3.10;2.25;;;19.10;36.40;;;;;;4945296;28;20052;-56
2022/03/08 09:37:12;;;;;;;3.67;1.80;;;19.10;36.30;;;;;;4921352;29;20510;-56
2022/03/08 09:39:40;;;;;;;2.67;1.67;;;19.10;36.30;;;;;;4925104;29;20735;-53
2022/03/08 09:42:07;;;;;;;3.28;1.77;;;19.20;36.30;;;;;;4914316;29;20048;-57
2022/03/08 09:44:35;;;;;;;4.90;2.13;;;19.20;36.20;;;;;;4926948;29;20036;-57
2022/03/08 09:47:02;;;;;;;3.05;1.40;;;19.20;36.10;;;;;;4934576;28;20143;-55
2022/03/08 09:49:30;;;;;;;3.05;2.13;;;19.20;36.10;;;;;;4927669;29;20050;-56
2022/03/08 09:51:57;;;;;;;2.33;2.03;;;19.20;36.00;;;;;;4921372;29;20063;-54
2022/03/08 09:54:25;;;;;;;2.17;2.08;;;19.20;35.90;;;;;;4920938;28;20054;-55
2022/03/08 09:56:52;;;;;;;4.47;1.92;;;19.20;35.80;;;;;;4918612;29;20058;-56
2022/03/08 09:59:22;;;;;;;3.95;2.50;;;19.20;36.40;;;;;;4937825;28;20404;-55
2022/03/08 10:01:50;;;;;;;4.57;2.17;;;19.20;35.70;;;;;;4927313;29;20059;-54
2022/03/08 10:04:17;;;;;;;3.17;2.78;;;19.30;35.70;;;;;;4921324;29;20044;-56
2022/03/08 10:06:47;;;;;;;2.30;2.10;;;19.30;35.30;;;;;;4923722;29;20064;-56
2022/03/08 10:09:16;;;;;;;2.13;2.00;;;19.40;35.40;;;;;;4919851;28;20051;-56
2022/03/08 10:11:44;;;;;;;3.55;2.03;;;19.40;35.40;;;;;;4912573;29;20060;-56
2022/03/08 10:14:27;;;;;;;2.65;1.95;;;19.40;35.40;;;;;;4921067;29;20091;-55
2022/03/08 10:16:54;;;;;;;2.70;1.83;;;19.40;35.30;;;;;;4924354;29;20512;-55
2022/03/08 10:19:22;;;;;;;2.47;2.08;;;19.40;35.20;;;;;;4920807;29;20047;-56
2022/03/08 10:21:54;;;;;;;3.08;2.25;;;19.50;35.30;;;;;;4922451;29;20032;-56
2022/03/08 10:24:23;;;;;;;2.60;2.35;;;19.50;35.20;;;;;;4914511;29;20403;-55
2022/03/08 10:26:53;;;;;;;7.80;3.13;;;19.50;35.10;;;;;;4925822;29;20504;-54
2022/03/08 10:29:25;;;;;;;2.65;2.40;;;19.50;35.00;;;;;;4950503;28;27006;-55
2022/03/08 10:32:06;;;;;;;3.05;2.70;;;19.60;35.00;;;;;;4925860;29;20133;-55
2022/03/08 10:34:33;;;;;;;1.95;1.85;;;19.60;34.90;;;;;;4921588;29;20050;-55
2022/03/08 10:37:06;;;;;;;4.57;2.35;;;19.60;34.90;;;;;;4920803;29;20056;-55
2022/03/08 10:39:33;;;;;;;2.85;2.60;;;19.70;34.90;;;;;;4929939;29;20054;-56
2022/03/08 10:42:01;;;;;;;3.92;2.67;;;19.70;34.80;;;;;;4929757;29;20046;-54
2022/03/08 10:44:37;;;;;;;3.40;2.65;;;19.70;34.70;;;;;;4926924;29;20048;-56
2022/03/08 10:47:07;;;;;;;4.05;2.78;;;19.80;34.70;;;;;;4920865;29;20082;-55
2022/03/08 10:49:36;;;;;;;3.63;2.85;;;19.80;34.60;;;;;;4928301;29;20135;-51
2022/03/08 10:52:07;;;;;;;2.47;2.28;;;19.80;34.60;;;;;;4922302;29;20420;-56
2022/03/08 10:54:35;;;;;;;6.28;2.45;;;19.90;34.50;;;;;;4932847;28;20051;-52
2022/03/08 10:57:03;;;;;;;3.38;1.88;;;19.90;34.50;;;;;;4913137;29;20043;-56
2022/03/08 10:59:30;;;;;;;3.65;3.05;;;20.00;34.40;;;;;;4923669;29;20048;-56
2022/03/08 11:01:58;;;;;;;4.28;2.50;;;20.00;34.20;;;;;;4932535;29;20082;-53
2022/03/08 11:04:25;;;;;;;3.60;2.13;;;20.10;34.10;;;;;;4922593;29;20055;-54
2022/03/08 11:06:55;;;;;;;2.97;2.40;;;20.10;34.00;;;;;;4923227;29;20043;-57
2022/03/08 11:09:24;;;;;;;5.10;3.03;;;20.20;33.90;;;;;;4922737;29;20040;-56
2022/03/08 11:11:51;;;;;;;3.45;3.15;;;20.30;33.80;;;;;;4926759;29;20574;-56
2022/03/08 11:14:18;;;;;;;3.80;2.80;;;20.30;33.70;;;;;;4920256;29;20571;-54
2022/03/08 11:16:50;;;;;;;6.78;3.03;;;20.40;33.70;;;;;;4940929;28;20044;-57
2022/03/08 11:19:18;;;;;;;3.92;2.40;;;20.40;33.60;;;;;;4927843;29;20155;-56
2022/03/08 11:21:47;;;;;;;2.10;1.83;;;20.50;33.50;;;;;;4926628;29;20094;-55
2022/03/08 11:24:16;;;;;;;4.45;2.28;;;20.50;33.50;;;;;;4919661;29;20051;-55
2022/03/08 11:26:45;;;;;;;1.95;1.80;;;20.60;33.40;;;;;;4912590;29;20063;-55
2022/03/08 11:29:14;;;;;;;2.85;1.60;;;20.70;33.40;;;;;;4917742;29;20575;-56
2022/03/08 11:31:43;;;;;;;2.22;2.10;;;20.70;33.30;;;;;;4931595;29;20099;-55
2022/03/08 11:34:18;;;;;;;4.25;2.58;;;20.80;33.30;;;;;;4921720;29;20071;-56
2022/03/08 11:36:52;;;;;;;5.65;1.92;;;20.80;33.20;;;;;;4923808;29;20573;-54
2022/03/08 11:39:23;;;;;;;1.95;1.83;;;20.90;33.20;;;;;;4919888;29;20058;-55
2022/03/08 11:41:54;;;;;;;2.00;1.88;;;20.90;33.10;;;;;;4921292;29;20035;-55
2022/03/08 11:44:28;;;;;;;3.95;2.05;;;21.00;33.10;;;;;;4924391;29;20453;-55
2022/03/08 11:47:04;;;;;;;4.03;2.40;;;21.10;33.10;;;;;;4919347;29;20491;-56
2022/03/08 11:49:40;;;;;;;2.92;1.40;;;21.10;33.00;;;;;;4923854;29;20075;-56
2022/03/08 11:52:12;;;;;;;2.00;1.90;;;21.20;32.90;;;;;;4920437;29;20047;-56
2022/03/08 11:54:39;;;;;;;2.30;1.63;;;21.30;32.90;;;;;;4922761;29;20039;-56
2022/03/08 11:57:08;;;;;;;5.25;2.95;;;21.30;32.80;;;;;;4918962;29;20041;-56
2022/03/08 11:59:35;;;;;;;2.30;1.30;;;21.40;32.70;;;;;;4924418;29;20043;-57
2022/03/08 12:02:04;;;;;;;2.25;2.00;;;21.40;32.70;;;;;;4928210;29;20087;-56
2022/03/08 12:04:45;;;;;;;2.47;2.28;;;21.50;32.70;;;;;;4925562;29;20055;-55
2022/03/08 12:07:26;;;;;;;3.05;1.60;;;21.60;32.50;;;;;;4934387;28;20052;-51
2022/03/08 12:10:27;;;;;;;2.53;1.98;;;21.70;32.50;;;;;;4916550;29;20052;-57
2022/03/08 12:12:56;;;;;;;3.08;2.30;;;21.80;32.40;;;;;;4924328;29;20421;-57
2022/03/08 12:15:23;;;;;;;2.58;2.33;;;21.80;32.30;;;;;;4919526;29;20044;-56
2022/03/08 12:18:18;;;;;;;2.15;1.77;;;21.80;32.30;;;;;;4913471;29;20432;-56
2022/03/08 12:21:29;;;;;;;2.08;1.98;;;21.90;32.20;;;;;;4916950;29;20039;-56
2022/03/08 12:24:00;;;;;;;1.35;1.20;;;21.90;32.10;;;;;;4922131;29;20089;-56
2022/03/08 12:26:29;;;;;;;2.10;1.25;;;22.00;32.10;;;;;;4911748;29;20072;-56
2022/03/08 12:29:06;;;;;;;1.90;1.73;;;22.00;32.00;;;;;;4932585;29;20087;-57
2022/03/08 12:31:54;;;;;;;2.45;2.25;;;22.10;31.90;;;;;;4926123;29;20411;-57
2022/03/08 12:34:35;;;;;;;2.50;2.00;;;22.20;32.00;;;;;;4918913;29;20048;-57
2022/03/08 12:37:03;;;;;;;1.95;1.55;;;22.20;31.90;;;;;;4920115;29;20044;-57
2022/03/08 12:40:02;;;;;;;1.20;1.10;;;22.30;31.90;;;;;;4921520;28;20047;-57
2022/03/08 12:42:34;;;;;;;2.10;1.90;;;22.40;31.80;;;;;;4923071;29;20533;-55
2022/03/08 12:45:08;;;;;;;1.88;1.60;;;22.40;31.80;;;;;;4913756;29;20581;-53
2022/03/08 12:47:39;;;;;;;1.98;1.52;;;22.50;31.70;;;;;;4918405;29;20047;-55
2022/03/08 12:50:10;;;;;;;1.50;1.25;;;22.50;31.70;;;;;;4915223;29;20055;-55
2022/03/08 12:52:40;;;;;;;1.65;0.90;;;22.60;31.70;;;;;;4920960;29;20111;-55
2022/03/08 12:55:13;;;;;;;1.48;1.38;;;22.60;31.60;;;;;;4921621;29;20551;-55
2022/03/08 12:57:49;;;;;;;2.75;1.67;;;22.70;32.20;;;;;;4921755;29;20159;-55
2022/03/08 13:00:29;;;;;;;1.58;1.13;;;22.80;31.50;;;;;;4916475;29;20055;-56
2022/03/08 13:02:57;;;;;;;2.00;1.77;;;22.80;31.40;;;;;;4928612;29;20075;-54
2022/03/08 13:05:27;;;;;;;1.73;1.40;;;22.80;31.40;;;;;;4911284;29;20044;-56
2022/03/08 13:07:55;;;;;;;1.60;1.15;;;22.80;31.30;;;;;;4911822;29;20059;-56
2022/03/08 13:10:23;;;;;;;1.98;1.42;;;22.90;31.30;;;;;;4925209;29;20088;-56
2022/03/08 13:12:52;;;;;;;3.08;1.35;;;22.90;31.20;;;;;;4924924;29;20161;-53
2022/03/08 13:15:22;;;;;;;2.28;2.03;;;23.00;31.20;;;;;;4919049;29;20071;-55
2022/03/08 13:17:54;;;;;;;1.92;1.83;;;23.00;31.10;;;;;;4919179;29;20044;-55